sensor_id;sensor_type;location;lat;lon;timestamp;temperature;humidity
7588;DHT22;3835;48.850;8.938;2022-10-18T00:02:01;14.00;99.90
7588;DHT22;3835;48.850;8.938;2022-10-18T00:04:28;14.00;99.90
7588;DHT22;3835;48.850;8.938;2022-10-18T00:06:55;14.00;99.90
7588;DHT22;3835;48.850;8.938;2022-10-18T00:09:22;14.00;99.90
7588;DHT22;3835;48.850;8.938;2022-10-18T00:11:49;14.00;99.90
7588;DHT22;3835;48.850;8.938;2022-10-18T00:14:17;14.00;99.90
7588;DHT22;3835;48.850;8.938;2022-10-18T00:16:44;13.90;99.90
7588;DHT22;3835;48.850;8.938;2022-10-18T00:19:11;14.00;99.90
7588;DHT22;3835;48.850;8.938;2022-10-18T00:21:38;14.00;99.90
7588;DHT22;3835;48.850;8.938;2022-10-18T00:24:05;13.90;99.90
7588;DHT22;3835;48.850;8.938;2022-10-18T00:26:32;13.80;99.90
7588;DHT22;3835;48.850;8.938;2022-10-18T00:29:02;13.70;99.90
7588;DHT22;3835;48.850;8.938;2022-10-18T00:31:31;13.60;99.90
7588;DHT22;3835;48.850;8.938;2022-10-18T00:34:01;13.70;99.90
7588;DHT22;3835;48.850;8.938;2022-10-18T00:36:30;13.70;99.90
7588;DHT22;3835;48.850;8.938;2022-10-18T00:38:59;13.80;99.90
7588;DHT22;3835;48.850;8.938;2022-10-18T00:41:28;13.90;99.90
7588;DHT22;3835;48.850;8.938;2022-10-18T00:43:57;13.90;99.90
7588;DHT22;3835;48.850;8.938;2022-10-18T00:46:26;14.00;99.90
7588;DHT22;3835;48.850;8.938;2022-10-18T00:48:56;14.10;99.90
7588;DHT22;3835;48.850;8.938;2022-10-18T00:51:26;14.10;99.90
7588;DHT22;3835;48.850;8.938;2022-10-18T00:53:54;14.20;99.90
7588;DHT22;3835;48.850;8.938;2022-10-18T00:56:21;14.20;99.90
7588;DHT22;3835;48.850;8.938;2022-10-18T00:58:48;14.30;99.90
7588;DHT22;3835;48.850;8.938;2022-10-18T01:01:15;14.40;99.90
7588;DHT22;3835;48.850;8.938;2022-10-18T01:03:42;14.40;99.90
7588;DHT22;3835;48.850;8.938;2022-10-18T01:06:10;14.40;99.90
7588;DHT22;3835;48.850;8.938;2022-10-18T01:08:47;14.50;99.90
7588;DHT22;3835;48.850;8.938;2022-10-18T01:11:28;14.50;99.90
7588;DHT22;3835;48.850;8.938;2022-10-18T01:14:09;14.60;99.90
7588;DHT22;3835;48.850;8.938;2022-10-18T01:16:43;14.60;99.90
7588;DHT22;3835;48.850;8.938;2022-10-18T01:19:27;14.60;99.90
7588;DHT22;3835;48.850;8.938;2022-10-18T01:22:03;14.60;99.90
7588;DHT22;3835;48.850;8.938;2022-10-18T01:24:56;14.70;99.90
7588;DHT22;3835;48.850;8.938;2022-10-18T01:27:42;14.70;99.90
7588;DHT22;3835;48.850;8.938;2022-10-18T01:30:36;14.70;99.90
7588;DHT22;3835;48.850;8.938;2022-10-18T01:33:09;14.80;99.90
7588;DHT22;3835;48.850;8.938;2022-10-18T01:35:42;14.80;99.90
7588;DHT22;3835;48.850;8.938;2022-10-18T01:38:13;14.80;99.90
7588;DHT22;3835;48.850;8.938;2022-10-18T01:40:44;14.80;99.90
7588;DHT22;3835;48.850;8.938;2022-10-18T01:43:12;14.70;99.90
7588;DHT22;3835;48.850;8.938;2022-10-18T01:45:41;14.70;99.90
7588;DHT22;3835;48.850;8.938;2022-10-18T01:48:09;14.70;99.90
7588;DHT22;3835;48.850;8.938;2022-10-18T01:50:37;14.70;99.90
7588;DHT22;3835;48.850;8.938;2022-10-18T01:53:04;14.70;99.90
7588;DHT22;3835;48.850;8.938;2022-10-18T01:55:36;14.70;99.90
7588;DHT22;3835;48.850;8.938;2022-10-18T01:58:10;14.60;99.90
7588;DHT22;3835;48.850;8.938;2022-10-18T02:00:42;14.70;99.90
7588;DHT22;3835;48.850;8.938;2022-10-18T02:03:14;14.60;99.90
7588;DHT22;3835;48.850;8.938;2022-10-18T02:05:46;14.60;99.90
7588;DHT22;3835;48.850;8.938;2022-10-18T02:08:20;14.60;99.90
7588;DHT22;3835;48.850;8.938;2022-10-18T02:10:52;14.60;99.90
7588;DHT22;3835;48.850;8.938;2022-10-18T02:13:21;14.60;99.90
7588;DHT22;3835;48.850;8.938;2022-10-18T02:15:53;14.60;99.90
7588;DHT22;3835;48.850;8.938;2022-10-18T02:18:23;14.60;99.90
7588;DHT22;3835;48.850;8.938;2022-10-18T02:20:52;14.60;99.90
7588;DHT22;3835;48.850;8.938;2022-10-18T02:23:22;14.60;99.90
7588;DHT22;3835;48.850;8.938;2022-10-18T02:25:51;14.60;99.90
7588;DHT22;3835;48.850;8.938;2022-10-18T02:28:18;14.60;99.90
7588;DHT22;3835;48.850;8.938;2022-10-18T02:30:53;14.60;99.90
7588;DHT22;3835;48.850;8.938;2022-10-18T02:33:29;14.60;99.90
7588;DHT22;3835;48.850;8.938;2022-10-18T02:36:01;14.60;99.90
7588;DHT22;3835;48.850;8.938;2022-10-18T02:38:30;14.60;99.90
7588;DHT22;3835;48.850;8.938;2022-10-18T02:40:58;14.70;99.90
7588;DHT22;3835;48.850;8.938;2022-10-18T02:43:24;14.70;99.90
7588;DHT22;3835;48.850;8.938;2022-10-18T02:45:53;14.70;99.90
7588;DHT22;3835;48.850;8.938;2022-10-18T02:48:20;14.70;99.90
7588;DHT22;3835;48.850;8.938;2022-10-18T02:50:47;14.70;99.90
7588;DHT22;3835;48.850;8.938;2022-10-18T02:53:13;14.70;99.90
7588;DHT22;3835;48.850;8.938;2022-10-18T02:55:40;14.70;99.90
7588;DHT22;3835;48.850;8.938;2022-10-18T02:58:07;14.60;99.90
7588;DHT22;3835;48.850;8.938;2022-10-18T03:00:33;14.60;99.90
7588;DHT22;3835;48.850;8.938;2022-10-18T03:03:02;14.50;99.90
7588;DHT22;3835;48.850;8.938;2022-10-18T03:05:28;14.50;99.90
7588;DHT22;3835;48.850;8.938;2022-10-18T03:07:55;14.40;99.90
7588;DHT22;3835;48.850;8.938;2022-10-18T03:10:22;14.40;99.90
7588;DHT22;3835;48.850;8.938;2022-10-18T03:12:49;14.30;99.90
7588;DHT22;3835;48.850;8.938;2022-10-18T03:15:16;14.30;99.90
7588;DHT22;3835;48.850;8.938;2022-10-18T03:17:43;14.30;99.90
7588;DHT22;3835;48.850;8.938;2022-10-18T03:20:11;14.20;99.90
7588;DHT22;3835;48.850;8.938;2022-10-18T03:22:38;14.10;99.90
7588;DHT22;3835;48.850;8.938;2022-10-18T03:25:05;14.10;99.90
7588;DHT22;3835;48.850;8.938;2022-10-18T03:27:32;14.10;99.90
7588;DHT22;3835;48.850;8.938;2022-10-18T03:29:59;14.00;99.90
7588;DHT22;3835;48.850;8.938;2022-10-18T03:32:25;13.90;99.90
7588;DHT22;3835;48.850;8.938;2022-10-18T03:34:52;13.90;99.90
7588;DHT22;3835;48.850;8.938;2022-10-18T03:37:20;13.80;99.90
7588;DHT22;3835;48.850;8.938;2022-10-18T03:39:47;13.80;99.90
7588;DHT22;3835;48.850;8.938;2022-10-18T03:42:14;13.80;99.90
7588;DHT22;3835;48.850;8.938;2022-10-18T03:44:41;13.80;99.90
7588;DHT22;3835;48.850;8.938;2022-10-18T03:47:07;13.80;99.90
7588;DHT22;3835;48.850;8.938;2022-10-18T03:49:34;13.80;99.90
7588;DHT22;3835;48.850;8.938;2022-10-18T03:52:01;13.80;99.90
7588;DHT22;3835;48.850;8.938;2022-10-18T03:54:29;13.70;99.90
7588;DHT22;3835;48.850;8.938;2022-10-18T03:56:56;13.70;99.90
7588;DHT22;3835;48.850;8.938;2022-10-18T03:59:23;13.70;99.90
7588;DHT22;3835;48.850;8.938;2022-10-18T04:01:49;13.70;99.90
7588;DHT22;3835;48.850;8.938;2022-10-18T04:04:16;13.70;99.90
7588;DHT22;3835;48.850;8.938;2022-10-18T04:06:43;13.70;99.90
7588;DHT22;3835;48.850;8.938;2022-10-18T04:09:10;13.80;99.90
7588;DHT22;3835;48.850;8.938;2022-10-18T04:11:38;13.80;99.90
7588;DHT22;3835;48.850;8.938;2022-10-18T04:14:05;13.80;99.90
7588;DHT22;3835;48.850;8.938;2022-10-18T04:16:31;13.90;99.90
7588;DHT22;3835;48.850;8.938;2022-10-18T04:18:58;13.90;99.90
7588;DHT22;3835;48.850;8.938;2022-10-18T04:21:25;13.90;99.90
7588;DHT22;3835;48.850;8.938;2022-10-18T04:23:51;14.00;99.90
7588;DHT22;3835;48.850;8.938;2022-10-18T04:26:18;14.00;99.90
7588;DHT22;3835;48.850;8.938;2022-10-18T04:28:46;14.00;99.90
7588;DHT22;3835;48.850;8.938;2022-10-18T04:31:13;14.00;99.90
7588;DHT22;3835;48.850;8.938;2022-10-18T04:33:40;14.00;99.90
7588;DHT22;3835;48.850;8.938;2022-10-18T04:36:07;14.00;99.90
7588;DHT22;3835;48.850;8.938;2022-10-18T04:38:34;14.00;99.90
7588;DHT22;3835;48.850;8.938;2022-10-18T04:41:00;14.00;99.90
7588;DHT22;3835;48.850;8.938;2022-10-18T04:43:27;14.00;99.90
7588;DHT22;3835;48.850;8.938;2022-10-18T04:45:55;14.00;99.90
7588;DHT22;3835;48.850;8.938;2022-10-18T04:48:22;14.00;99.90
7588;DHT22;3835;48.850;8.938;2022-10-18T04:50:50;14.00;99.90
7588;DHT22;3835;48.850;8.938;2022-10-18T04:53:17;14.00;99.90
7588;DHT22;3835;48.850;8.938;2022-10-18T04:55:44;13.90;99.90
7588;DHT22;3835;48.850;8.938;2022-10-18T04:58:11;14.00;99.90
7588;DHT22;3835;48.850;8.938;2022-10-18T05:00:38;14.00;99.90
7588;DHT22;3835;48.850;8.938;2022-10-18T05:03:07;14.00;99.90
7588;DHT22;3835;48.850;8.938;2022-10-18T05:05:34;14.00;99.90
7588;DHT22;3835;48.850;8.938;2022-10-18T05:08:01;14.00;99.90
7588;DHT22;3835;48.850;8.938;2022-10-18T05:10:27;14.00;99.90
7588;DHT22;3835;48.850;8.938;2022-10-18T05:12:54;13.90;99.90
7588;DHT22;3835;48.850;8.938;2022-10-18T05:15:21;13.80;99.90
7588;DHT22;3835;48.850;8.938;2022-10-18T05:17:48;13.80;99.90
7588;DHT22;3835;48.850;8.938;2022-10-18T05:20:16;13.80;99.90
7588;DHT22;3835;48.850;8.938;2022-10-18T05:22:43;13.70;99.90
7588;DHT22;3835;48.850;8.938;2022-10-18T05:25:09;13.70;99.90
7588;DHT22;3835;48.850;8.938;2022-10-18T05:27:36;13.70;99.90
7588;DHT22;3835;48.850;8.938;2022-10-18T05:30:03;13.70;99.90
7588;DHT22;3835;48.850;8.938;2022-10-18T05:32:30;13.70;99.90
7588;DHT22;3835;48.850;8.938;2022-10-18T05:34:57;13.70;99.90
7588;DHT22;3835;48.850;8.938;2022-10-18T05:37:25;13.80;99.90
7588;DHT22;3835;48.850;8.938;2022-10-18T05:39:52;13.80;99.90
7588;DHT22;3835;48.850;8.938;2022-10-18T05:42:19;13.80;99.90
7588;DHT22;3835;48.850;8.938;2022-10-18T05:44:46;13.80;99.90
7588;DHT22;3835;48.850;8.938;2022-10-18T05:47:12;13.80;99.90
7588;DHT22;3835;48.850;8.938;2022-10-18T05:49:39;13.80;99.90
7588;DHT22;3835;48.850;8.938;2022-10-18T05:52:06;13.80;99.90
7588;DHT22;3835;48.850;8.938;2022-10-18T05:54:34;13.80;99.90
7588;DHT22;3835;48.850;8.938;2022-10-18T05:57:01;13.80;99.90
7588;DHT22;3835;48.850;8.938;2022-10-18T05:59:27;13.90;99.90
7588;DHT22;3835;48.850;8.938;2022-10-18T06:01:54;13.90;99.90
7588;DHT22;3835;48.850;8.938;2022-10-18T06:04:21;14.00;99.90
7588;DHT22;3835;48.850;8.938;2022-10-18T06:06:48;14.10;99.90
7588;DHT22;3835;48.850;8.938;2022-10-18T06:09:14;14.20;99.90
7588;DHT22;3835;48.850;8.938;2022-10-18T06:11:42;14.20;99.90
7588;DHT22;3835;48.850;8.938;2022-10-18T06:14:09;14.30;99.90
7588;DHT22;3835;48.850;8.938;2022-10-18T06:16:36;14.40;99.90
7588;DHT22;3835;48.850;8.938;2022-10-18T06:19:03;14.50;99.90
7588;DHT22;3835;48.850;8.938;2022-10-18T06:21:30;14.60;99.90
7588;DHT22;3835;48.850;8.938;2022-10-18T06:23:58;14.70;99.90
7588;DHT22;3835;48.850;8.938;2022-10-18T06:26:25;14.80;99.90
7588;DHT22;3835;48.850;8.938;2022-10-18T06:28:54;14.90;99.90
7588;DHT22;3835;48.850;8.938;2022-10-18T06:31:20;14.90;99.90
7588;DHT22;3835;48.850;8.938;2022-10-18T06:33:47;14.90;99.90
7588;DHT22;3835;48.850;8.938;2022-10-18T06:36:16;15.00;99.90
7588;DHT22;3835;48.850;8.938;2022-10-18T06:38:43;15.00;99.90
7588;DHT22;3835;48.850;8.938;2022-10-18T06:41:10;15.00;99.90
7588;DHT22;3835;48.850;8.938;2022-10-18T06:43:36;15.00;99.90
7588;DHT22;3835;48.850;8.938;2022-10-18T06:46:06;15.00;99.90
7588;DHT22;3835;48.850;8.938;2022-10-18T06:48:33;15.10;99.90
7588;DHT22;3835;48.850;8.938;2022-10-18T06:51:01;15.10;99.90
7588;DHT22;3835;48.850;8.938;2022-10-18T06:53:30;15.10;99.90
7588;DHT22;3835;48.850;8.938;2022-10-18T06:55:58;15.10;99.90
7588;DHT22;3835;48.850;8.938;2022-10-18T06:58:25;15.10;99.90
7588;DHT22;3835;48.850;8.938;2022-10-18T07:00:52;15.10;99.90
7588;DHT22;3835;48.850;8.938;2022-10-18T07:03:20;15.20;99.90
7588;DHT22;3835;48.850;8.938;2022-10-18T07:05:47;15.20;99.90
7588;DHT22;3835;48.850;8.938;2022-10-18T07:08:14;15.20;99.90
7588;DHT22;3835;48.850;8.938;2022-10-18T07:10:41;15.30;99.90
7588;DHT22;3835;48.850;8.938;2022-10-18T07:13:07;15.40;99.90
7588;DHT22;3835;48.850;8.938;2022-10-18T07:15:34;15.40;99.90
7588;DHT22;3835;48.850;8.938;2022-10-18T07:18:03;15.50;99.90
7588;DHT22;3835;48.850;8.938;2022-10-18T07:20:31;15.60;99.90
7588;DHT22;3835;48.850;8.938;2022-10-18T07:22:58;15.70;99.90
7588;DHT22;3835;48.850;8.938;2022-10-18T07:25:24;15.70;99.90
7588;DHT22;3835;48.850;8.938;2022-10-18T07:27:51;15.90;99.90
7588;DHT22;3835;48.850;8.938;2022-10-18T07:30:18;16.00;99.90
7588;DHT22;3835;48.850;8.938;2022-10-18T07:32:45;16.20;99.90
7588;DHT22;3835;48.850;8.938;2022-10-18T07:35:11;16.30;99.90
7588;DHT22;3835;48.850;8.938;2022-10-18T07:37:40;16.50;99.90
7588;DHT22;3835;48.850;8.938;2022-10-18T07:40:08;16.70;99.90
7588;DHT22;3835;48.850;8.938;2022-10-18T07:42:36;16.80;99.90
7588;DHT22;3835;48.850;8.938;2022-10-18T07:45:04;17.00;99.90
7588;DHT22;3835;48.850;8.938;2022-10-18T07:47:31;17.00;99.90
7588;DHT22;3835;48.850;8.938;2022-10-18T07:49:58;17.00;99.90
7588;DHT22;3835;48.850;8.938;2022-10-18T07:52:24;17.00;99.90
7588;DHT22;3835;48.850;8.938;2022-10-18T07:54:53;17.00;99.90
7588;DHT22;3835;48.850;8.938;2022-10-18T07:57:19;17.00;99.90
7588;DHT22;3835;48.850;8.938;2022-10-18T07:59:47;17.00;99.90
7588;DHT22;3835;48.850;8.938;2022-10-18T08:02:20;16.90;99.90
7588;DHT22;3835;48.850;8.938;2022-10-18T08:04:47;16.90;99.90
7588;DHT22;3835;48.850;8.938;2022-10-18T08:07:15;16.90;99.90
7588;DHT22;3835;48.850;8.938;2022-10-18T08:09:42;16.90;99.90
7588;DHT22;3835;48.850;8.938;2022-10-18T08:12:10;17.00;99.90
7588;DHT22;3835;48.850;8.938;2022-10-18T08:14:36;17.00;99.90
7588;DHT22;3835;48.850;8.938;2022-10-18T08:17:03;17.10;99.90
7588;DHT22;3835;48.850;8.938;2022-10-18T08:19:30;17.30;99.90
7588;DHT22;3835;48.850;8.938;2022-10-18T08:21:57;17.40;99.90
7588;DHT22;3835;48.850;8.938;2022-10-18T08:24:24;17.40;99.90
7588;DHT22;3835;48.850;8.938;2022-10-18T08:26:50;17.50;99.90
7588;DHT22;3835;48.850;8.938;2022-10-18T08:29:19;17.60;99.90
7588;DHT22;3835;48.850;8.938;2022-10-18T08:31:45;17.70;99.90
7588;DHT22;3835;48.850;8.938;2022-10-18T08:34:14;17.80;99.90
7588;DHT22;3835;48.850;8.938;2022-10-18T08:36:41;17.90;99.90
7588;DHT22;3835;48.850;8.938;2022-10-18T08:39:08;17.90;99.90
7588;DHT22;3835;48.850;8.938;2022-10-18T08:42:14;18.00;99.90
7588;DHT22;3835;48.850;8.938;2022-10-18T08:44:47;18.10;99.90
7588;DHT22;3835;48.850;8.938;2022-10-18T08:47:16;18.10;99.90
7588;DHT22;3835;48.850;8.938;2022-10-18T08:49:45;18.10;99.90
7588;DHT22;3835;48.850;8.938;2022-10-18T08:52:18;18.00;99.90
7588;DHT22;3835;48.850;8.938;2022-10-18T08:54:54;18.00;99.90
7588;DHT22;3835;48.850;8.938;2022-10-18T08:57:24;17.70;99.90
7588;DHT22;3835;48.850;8.938;2022-10-18T08:59:52;17.60;99.90
7588;DHT22;3835;48.850;8.938;2022-10-18T09:02:31;17.40;99.90
7588;DHT22;3835;48.850;8.938;2022-10-18T09:05:05;17.10;99.90
7588;DHT22;3835;48.850;8.938;2022-10-18T09:07:57;16.70;99.90
7588;DHT22;3835;48.850;8.938;2022-10-18T09:10:42;16.60;99.90
7588;DHT22;3835;48.850;8.938;2022-10-18T09:13:32;16.70;99.90
7588;DHT22;3835;48.850;8.938;2022-10-18T09:16:04;16.60;99.90
7588;DHT22;3835;48.850;8.938;2022-10-18T09:18:45;16.60;99.90
7588;DHT22;3835;48.850;8.938;2022-10-18T09:21:19;16.80;99.90
7588;DHT22;3835;48.850;8.938;2022-10-18T09:23:48;17.10;99.90
7588;DHT22;3835;48.850;8.938;2022-10-18T09:28:54;17.50;99.90
7588;DHT22;3835;48.850;8.938;2022-10-18T09:31:31;17.70;99.90
7588;DHT22;3835;48.850;8.938;2022-10-18T09:34:05;17.80;99.90
7588;DHT22;3835;48.850;8.938;2022-10-18T09:36:36;17.90;99.90
7588;DHT22;3835;48.850;8.938;2022-10-18T09:39:08;18.10;99.90
7588;DHT22;3835;48.850;8.938;2022-10-18T09:41:40;18.40;99.90
7588;DHT22;3835;48.850;8.938;2022-10-18T09:44:14;18.60;99.90
7588;DHT22;3835;48.850;8.938;2022-10-18T09:46:45;19.00;99.90
7588;DHT22;3835;48.850;8.938;2022-10-18T09:49:17;19.20;99.90
7588;DHT22;3835;48.850;8.938;2022-10-18T09:51:44;19.50;99.90
7588;DHT22;3835;48.850;8.938;2022-10-18T09:54:20;19.60;99.90
7588;DHT22;3835;48.850;8.938;2022-10-18T09:56:52;19.60;99.90
7588;DHT22;3835;48.850;8.938;2022-10-18T09:59:35;19.50;99.90
7588;DHT22;3835;48.850;8.938;2022-10-18T10:02:04;19.50;99.90
7588;DHT22;3835;48.850;8.938;2022-10-18T10:04:32;19.60;99.90
7588;DHT22;3835;48.850;8.938;2022-10-18T10:07:00;19.60;99.90
7588;DHT22;3835;48.850;8.938;2022-10-18T10:09:28;19.60;99.90
7588;DHT22;3835;48.850;8.938;2022-10-18T10:11:56;19.60;99.90
7588;DHT22;3835;48.850;8.938;2022-10-18T10:14:24;19.70;99.90
7588;DHT22;3835;48.850;8.938;2022-10-18T10:16:54;19.90;99.90
7588;DHT22;3835;48.850;8.938;2022-10-18T10:19:29;20.00;99.90
7588;DHT22;3835;48.850;8.938;2022-10-18T10:22:00;20.00;99.90
7588;DHT22;3835;48.850;8.938;2022-10-18T10:24:44;19.90;99.90
7588;DHT22;3835;48.850;8.938;2022-10-18T10:27:20;19.70;99.90
7588;DHT22;3835;48.850;8.938;2022-10-18T10:30:00;19.60;99.90
7588;DHT22;3835;48.850;8.938;2022-10-18T10:32:29;19.60;99.90
7588;DHT22;3835;48.850;8.938;2022-10-18T10:34:58;19.60;99.90
7588;DHT22;3835;48.850;8.938;2022-10-18T10:37:28;19.60;99.90
7588;DHT22;3835;48.850;8.938;2022-10-18T10:40:22;19.60;99.90
7588;DHT22;3835;48.850;8.938;2022-10-18T10:43:05;19.70;99.90
7588;DHT22;3835;48.850;8.938;2022-10-18T10:45:35;19.80;99.90
7588;DHT22;3835;48.850;8.938;2022-10-18T10:48:12;20.00;99.90
7588;DHT22;3835;48.850;8.938;2022-10-18T10:50:56;20.00;99.90
7588;DHT22;3835;48.850;8.938;2022-10-18T10:53:31;20.10;99.90
7588;DHT22;3835;48.850;8.938;2022-10-18T10:55:59;20.20;99.90
7588;DHT22;3835;48.850;8.938;2022-10-18T10:58:33;20.30;99.90
7588;DHT22;3835;48.850;8.938;2022-10-18T11:01:18;20.40;99.90
7588;DHT22;3835;48.850;8.938;2022-10-18T11:03:46;20.30;99.90
7588;DHT22;3835;48.850;8.938;2022-10-18T11:06:39;20.40;99.90
7588;DHT22;3835;48.850;8.938;2022-10-18T11:09:18;20.30;99.90
7588;DHT22;3835;48.850;8.938;2022-10-18T11:11:57;20.30;99.90
7588;DHT22;3835;48.850;8.938;2022-10-18T11:14:29;20.40;99.90
7588;DHT22;3835;48.850;8.938;2022-10-18T11:17:02;20.40;99.90
7588;DHT22;3835;48.850;8.938;2022-10-18T11:19:37;20.30;99.90
7588;DHT22;3835;48.850;8.938;2022-10-18T11:22:12;20.40;99.90
7588;DHT22;3835;48.850;8.938;2022-10-18T11:24:40;20.40;99.90
7588;DHT22;3835;48.850;8.938;2022-10-18T11:27:11;20.40;99.90
7588;DHT22;3835;48.850;8.938;2022-10-18T11:29:54;20.50;99.90
7588;DHT22;3835;48.850;8.938;2022-10-18T11:32:26;20.40;99.90
7588;DHT22;3835;48.850;8.938;2022-10-18T11:35:04;20.30;99.90
7588;DHT22;3835;48.850;8.938;2022-10-18T11:37:46;20.30;99.90
7588;DHT22;3835;48.850;8.938;2022-10-18T11:40:38;20.20;99.90
7588;DHT22;3835;48.850;8.938;2022-10-18T11:43:11;20.20;99.90
7588;DHT22;3835;48.850;8.938;2022-10-18T11:45:45;20.40;99.90
7588;DHT22;3835;48.850;8.938;2022-10-18T11:48:33;20.40;99.90
7588;DHT22;3835;48.850;8.938;2022-10-18T11:51:07;20.40;99.90
7588;DHT22;3835;48.850;8.938;2022-10-18T11:53:44;20.30;99.90
7588;DHT22;3835;48.850;8.938;2022-10-18T11:56:20;20.30;99.90
7588;DHT22;3835;48.850;8.938;2022-10-18T11:59:01;20.30;99.90
7588;DHT22;3835;48.850;8.938;2022-10-18T12:01:38;20.30;99.90
7588;DHT22;3835;48.850;8.938;2022-10-18T12:04:10;20.20;99.90
7588;DHT22;3835;48.850;8.938;2022-10-18T12:06:41;20.10;99.90
7588;DHT22;3835;48.850;8.938;2022-10-18T12:09:16;20.00;99.90
7588;DHT22;3835;48.850;8.938;2022-10-18T12:11:48;19.90;99.90
7588;DHT22;3835;48.850;8.938;2022-10-18T12:14:22;20.00;99.90
7588;DHT22;3835;48.850;8.938;2022-10-18T12:16:50;20.20;99.90
7588;DHT22;3835;48.850;8.938;2022-10-18T12:19:20;20.40;99.90
7588;DHT22;3835;48.850;8.938;2022-10-18T12:21:48;20.40;99.90
7588;DHT22;3835;48.850;8.938;2022-10-18T12:24:21;20.10;99.90
7588;DHT22;3835;48.850;8.938;2022-10-18T12:26:52;19.90;99.90
7588;DHT22;3835;48.850;8.938;2022-10-18T12:29:27;19.70;99.90
7588;DHT22;3835;48.850;8.938;2022-10-18T12:31:57;19.40;99.90
7588;DHT22;3835;48.850;8.938;2022-10-18T12:34:29;19.40;99.90
7588;DHT22;3835;48.850;8.938;2022-10-18T12:40:05;19.50;99.90
7588;DHT22;3835;48.850;8.938;2022-10-18T12:42:40;19.70;99.90
7588;DHT22;3835;48.850;8.938;2022-10-18T12:45:19;19.80;99.90
7588;DHT22;3835;48.850;8.938;2022-10-18T12:47:48;19.90;99.90
7588;DHT22;3835;48.850;8.938;2022-10-18T12:50:25;20.10;99.90
7588;DHT22;3835;48.850;8.938;2022-10-18T12:53:02;20.20;99.90
7588;DHT22;3835;48.850;8.938;2022-10-18T12:55:32;20.40;99.90
7588;DHT22;3835;48.850;8.938;2022-10-18T12:58:28;20.60;99.90
7588;DHT22;3835;48.850;8.938;2022-10-18T13:01:01;20.60;99.90
7588;DHT22;3835;48.850;8.938;2022-10-18T13:06:24;20.50;99.90
7588;DHT22;3835;48.850;8.938;2022-10-18T13:09:14;20.30;99.90
7588;DHT22;3835;48.850;8.938;2022-10-18T13:11:43;20.40;99.90
7588;DHT22;3835;48.850;8.938;2022-10-18T13:14:34;20.40;99.90
7588;DHT22;3835;48.850;8.938;2022-10-18T13:17:11;20.50;99.90
7588;DHT22;3835;48.850;8.938;2022-10-18T13:19:47;20.60;99.90
7588;DHT22;3835;48.850;8.938;2022-10-18T13:22:40;20.60;99.90
7588;DHT22;3835;48.850;8.938;2022-10-18T13:25:20;20.90;99.90
7588;DHT22;3835;48.850;8.938;2022-10-18T13:27:52;21.00;99.90
7588;DHT22;3835;48.850;8.938;2022-10-18T13:30:32;21.00;99.90
7588;DHT22;3835;48.850;8.938;2022-10-18T13:33:21;20.80;99.90
7588;DHT22;3835;48.850;8.938;2022-10-18T13:35:53;20.70;99.90
7588;DHT22;3835;48.850;8.938;2022-10-18T13:38:39;20.80;99.90
7588;DHT22;3835;48.850;8.938;2022-10-18T13:41:09;20.60;99.90
7588;DHT22;3835;48.850;8.938;2022-10-18T13:50:12;20.60;99.90
7588;DHT22;3835;48.850;8.938;2022-10-18T13:55:53;20.60;99.90
7588;DHT22;3835;48.850;8.938;2022-10-18T13:58:28;20.50;99.90
7588;DHT22;3835;48.850;8.938;2022-10-18T14:01:06;20.30;99.90
7588;DHT22;3835;48.850;8.938;2022-10-18T14:03:49;20.40;99.90
7588;DHT22;3835;48.850;8.938;2022-10-18T14:06:23;20.30;99.90
7588;DHT22;3835;48.850;8.938;2022-10-18T14:08:55;20.30;99.90
7588;DHT22;3835;48.850;8.938;2022-10-18T14:11:27;20.30;99.90
7588;DHT22;3835;48.850;8.938;2022-10-18T14:14:03;20.10;99.90
7588;DHT22;3835;48.850;8.938;2022-10-18T14:16:35;20.00;99.90
7588;DHT22;3835;48.850;8.938;2022-10-18T14:19:12;19.80;99.90
7588;DHT22;3835;48.850;8.938;2022-10-18T14:21:49;19.80;99.90
7588;DHT22;3835;48.850;8.938;2022-10-18T14:24:21;19.50;99.90
7588;DHT22;3835;48.850;8.938;2022-10-18T14:27:10;19.30;99.90
7588;DHT22;3835;48.850;8.938;2022-10-18T14:29:38;19.30;99.90
7588;DHT22;3835;48.850;8.938;2022-10-18T14:32:08;19.30;99.90
7588;DHT22;3835;48.850;8.938;2022-10-18T14:34:36;19.40;99.90
7588;DHT22;3835;48.850;8.938;2022-10-18T14:37:05;19.50;99.90
7588;DHT22;3835;48.850;8.938;2022-10-18T14:39:31;19.70;99.90
7588;DHT22;3835;48.850;8.938;2022-10-18T14:41:58;19.90;99.90
7588;DHT22;3835;48.850;8.938;2022-10-18T14:44:26;19.80;99.90
7588;DHT22;3835;48.850;8.938;2022-10-18T14:46:59;19.60;99.90
7588;DHT22;3835;48.850;8.938;2022-10-18T14:49:26;19.30;99.90
7588;DHT22;3835;48.850;8.938;2022-10-18T14:51:55;19.00;99.90
7588;DHT22;3835;48.850;8.938;2022-10-18T14:54:28;18.90;99.90
7588;DHT22;3835;48.850;8.938;2022-10-18T14:56:56;18.80;99.90
7588;DHT22;3835;48.850;8.938;2022-10-18T14:59:25;18.80;99.90
7588;DHT22;3835;48.850;8.938;2022-10-18T15:01:55;18.90;99.90
7588;DHT22;3835;48.850;8.938;2022-10-18T15:04:23;18.80;99.90
7588;DHT22;3835;48.850;8.938;2022-10-18T15:06:56;18.80;99.90
7588;DHT22;3835;48.850;8.938;2022-10-18T15:09:24;18.70;99.90
7588;DHT22;3835;48.850;8.938;2022-10-18T15:11:51;18.70;99.90
7588;DHT22;3835;48.850;8.938;2022-10-18T15:14:24;18.60;99.90
7588;DHT22;3835;48.850;8.938;2022-10-18T15:16:54;18.60;99.90
7588;DHT22;3835;48.850;8.938;2022-10-18T15:19:28;18.60;99.90
7588;DHT22;3835;48.850;8.938;2022-10-18T15:21:57;18.60;99.90
7588;DHT22;3835;48.850;8.938;2022-10-18T15:24:31;18.50;99.90
7588;DHT22;3835;48.850;8.938;2022-10-18T15:29:31;18.40;99.90
7588;DHT22;3835;48.850;8.938;2022-10-18T15:32:10;18.40;99.90
7588;DHT22;3835;48.850;8.938;2022-10-18T15:34:38;18.40;99.90
7588;DHT22;3835;48.850;8.938;2022-10-18T15:37:16;18.20;99.90
7588;DHT22;3835;48.850;8.938;2022-10-18T15:39:44;18.10;99.90
7588;DHT22;3835;48.850;8.938;2022-10-18T15:42:33;18.00;99.90
7588;DHT22;3835;48.850;8.938;2022-10-18T15:45:00;18.00;99.90
7588;DHT22;3835;48.850;8.938;2022-10-18T15:47:27;18.00;99.90
7588;DHT22;3835;48.850;8.938;2022-10-18T15:49:55;17.90;99.90
7588;DHT22;3835;48.850;8.938;2022-10-18T15:52:28;17.90;99.90
7588;DHT22;3835;48.850;8.938;2022-10-18T15:54:58;17.80;99.90
7588;DHT22;3835;48.850;8.938;2022-10-18T15:57:25;17.70;99.90
7588;DHT22;3835;48.850;8.938;2022-10-18T15:59:53;17.70;99.90
7588;DHT22;3835;48.850;8.938;2022-10-18T16:02:21;17.60;99.90
7588;DHT22;3835;48.850;8.938;2022-10-18T16:04:47;17.60;99.90
7588;DHT22;3835;48.850;8.938;2022-10-18T16:07:14;17.50;99.90
7588;DHT22;3835;48.850;8.938;2022-10-18T16:09:42;17.50;99.90
7588;DHT22;3835;48.850;8.938;2022-10-18T16:12:10;17.50;99.90
7588;DHT22;3835;48.850;8.938;2022-10-18T16:14:37;17.50;99.90
7588;DHT22;3835;48.850;8.938;2022-10-18T16:17:05;17.40;99.90
7588;DHT22;3835;48.850;8.938;2022-10-18T16:19:32;17.40;99.90
7588;DHT22;3835;48.850;8.938;2022-10-18T16:21:59;17.30;99.90
7588;DHT22;3835;48.850;8.938;2022-10-18T16:24:26;17.20;99.90
7588;DHT22;3835;48.850;8.938;2022-10-18T16:26:53;17.20;99.90
7588;DHT22;3835;48.850;8.938;2022-10-18T16:29:22;17.10;99.90
7588;DHT22;3835;48.850;8.938;2022-10-18T16:31:51;17.10;99.90
7588;DHT22;3835;48.850;8.938;2022-10-18T16:34:22;17.10;99.90
7588;DHT22;3835;48.850;8.938;2022-10-18T16:36:51;17.10;99.90
7588;DHT22;3835;48.850;8.938;2022-10-18T16:39:20;17.10;99.90
7588;DHT22;3835;48.850;8.938;2022-10-18T16:41:47;17.10;99.90
7588;DHT22;3835;48.850;8.938;2022-10-18T16:44:14;17.00;99.90
7588;DHT22;3835;48.850;8.938;2022-10-18T16:46:43;17.00;99.90